createdAt,value
2022-12-11T00:00:30.942Z,98270.75
2022-12-11T00:02:58.763Z,98280.31
2022-12-11T00:05:26.364Z,98270.16
2022-12-11T00:07:54.041Z,98273.69
2022-12-11T00:10:22.453Z,98274.53
2022-12-11T00:12:49.977Z,98270.25
2022-12-11T00:15:17.576Z,98264.13
2022-12-11T00:17:45.368Z,98263.22
2022-12-11T00:20:13.014Z,98262.44
2022-12-11T00:22:40.599Z,98264.22
2022-12-11T00:25:09.003Z,98263.22
2022-12-11T00:27:36.975Z,98268.22
2022-12-11T00:30:05.696Z,98258.75
2022-12-11T00:32:37.486Z,98270.75
2022-12-11T00:35:05.621Z,98268.06
2022-12-11T00:37:33.527Z,98270.56
2022-12-11T00:40:01.099Z,98274.94
2022-12-11T00:42:28.675Z,98278.13
2022-12-11T00:44:56.553Z,98282.28
2022-12-11T00:47:24.026Z,98283.91
2022-12-11T00:49:51.584Z,98272.66
2022-12-11T00:52:19.287Z,98265.19
2022-12-11T00:54:46.753Z,98279.53
2022-12-11T00:57:14.234Z,98281.28
2022-12-11T00:59:42.058Z,98281.72
2022-12-11T01:02:09.651Z,98294.28
2022-12-11T01:04:37.282Z,98296.13
2022-12-11T01:07:05.212Z,98303.78
2022-12-11T01:09:51.513Z,98295.97
2022-12-11T01:12:19.293Z,98304.59
2022-12-11T01:14:46.873Z,98301.00
2022-12-11T01:17:14.511Z,98308.81
2022-12-11T01:19:42.366Z,98303.44
2022-12-11T01:22:09.954Z,98311.88
2022-12-11T01:24:38.151Z,98308.28
2022-12-11T01:27:05.958Z,98326.41
2022-12-11T01:29:33.737Z,98330.41
2022-12-11T01:32:01.305Z,98329.31
2022-12-11T01:34:30.654Z,98337.84
2022-12-11T01:36:58.297Z,98337.13
2022-12-11T01:39:25.852Z,98343.94
2022-12-11T01:42:01.345Z,98340.47
2022-12-11T01:44:31.798Z,98355.06
2022-12-11T01:46:59.671Z,98344.50
2022-12-11T01:49:27.887Z,98351.47
2022-12-11T01:51:59.121Z,98359.94
2022-12-11T01:54:28.352Z,98361.03
2022-12-11T01:57:00.254Z,98367.94
2022-12-11T01:59:29.957Z,98368.81
2022-12-11T02:02:02.902Z,98362.19
2022-12-11T02:04:31.362Z,98365.91
2022-12-11T02:06:59.170Z,98376.47
2022-12-11T02:09:35.134Z,98373.28
2022-12-11T02:12:37.569Z,98375.22
2022-12-11T02:15:39.126Z,98381.00
2022-12-11T02:18:18.846Z,98378.75
2022-12-11T02:21:02.686Z,98373.97
2022-12-11T02:23:45.731Z,98368.19
2022-12-11T02:26:36.927Z,98372.09
2022-12-11T02:29:13.528Z,98376.78
2022-12-11T02:31:52.022Z,98378.53
2022-12-11T02:34:29.254Z,98382.50
2022-12-11T02:36:59.779Z,98377.56
2022-12-11T02:39:28.055Z,98376.13
2022-12-11T02:41:56.754Z,98383.38
2022-12-11T02:44:29.776Z,98387.34
2022-12-11T02:46:58.502Z,98374.78
2022-12-11T02:49:26.852Z,98382.78
2022-12-11T02:51:55.067Z,98373.56
2022-12-11T02:54:27.131Z,98380.66
2022-12-11T02:57:02.249Z,98388.59
2022-12-11T02:59:35.099Z,98384.56
2022-12-11T03:02:03.506Z,98379.69
2022-12-11T03:04:32.315Z,98391.88
2022-12-11T03:07:12.500Z,98393.09
2022-12-11T03:09:41.362Z,98400.28
2022-12-11T03:12:11.539Z,98397.91
2022-12-11T03:14:40.033Z,98413.56
2022-12-11T03:17:25.791Z,98407.59
2022-12-11T03:20:18.086Z,98418.09
2022-12-11T03:22:58.587Z,98420.09
2022-12-11T03:25:32.079Z,98442.59
2022-12-11T03:28:11.036Z,98441.66
2022-12-11T03:30:39.312Z,98456.31
2022-12-11T03:33:11.987Z,98471.75
2022-12-11T03:35:43.014Z,98482.34
2022-12-11T03:38:24.069Z,98500.16
2022-12-11T03:40:54.491Z,98516.03
2022-12-11T03:43:22.821Z,98527.06
2022-12-11T03:45:52.233Z,98522.28
2022-12-11T03:48:21.228Z,98536.38
2022-12-11T03:50:49.858Z,98546.63
2022-12-11T03:53:18.820Z,98536.03
2022-12-11T03:55:46.509Z,98545.63
2022-12-11T03:58:14.474Z,98538.84
2022-12-11T04:00:42.022Z,98556.06
2022-12-11T04:03:17.833Z,98547.66
2022-12-11T04:05:47.682Z,98561.25
2022-12-11T04:08:16.870Z,98566.44
2022-12-11T04:10:44.524Z,98582.00
2022-12-11T04:13:12.345Z,98583.87
2022-12-11T04:15:40.454Z,98589.91
2022-12-11T04:18:27.001Z,98581.56
2022-12-11T04:21:14.393Z,98587.59
2022-12-11T04:24:00.516Z,98587.72
2022-12-11T04:26:28.433Z,98594.59
2022-12-11T04:28:56.031Z,98599.00
2022-12-11T04:31:23.787Z,98592.47
2022-12-11T04:33:51.719Z,98615.81
2022-12-11T04:36:19.334Z,98594.34
2022-12-11T04:38:46.892Z,98597.00
2022-12-11T04:41:15.680Z,98596.44
2022-12-11T04:43:46.707Z,98613.03
2022-12-11T04:46:17.175Z,98597.50
2022-12-11T04:48:45.665Z,98607.97
2022-12-11T04:51:14.321Z,98608.00
2022-12-11T04:53:42.297Z,98592.84
2022-12-11T04:56:11.991Z,98602.25
2022-12-11T04:58:41.131Z,98604.00
2022-12-11T05:01:17.932Z,98616.25
2022-12-11T05:03:46.506Z,98608.50
2022-12-11T05:06:14.840Z,98623.50
2022-12-11T05:08:43.170Z,98629.59
2022-12-11T05:11:12.676Z,98618.31
2022-12-11T05:13:40.745Z,98646.81
2022-12-11T05:16:09.786Z,98651.25
2022-12-11T05:18:37.448Z,98661.53
2022-12-11T05:21:07.858Z,98662.47
2022-12-11T05:23:36.120Z,98668.75
2022-12-11T05:26:06.508Z,98682.34
2022-12-11T05:28:36.541Z,98668.56
2022-12-11T05:31:17.900Z,98678.12
2022-12-11T05:33:46.671Z,98685.00
2022-12-11T05:36:17.001Z,98686.03
2022-12-11T05:38:45.665Z,98696.13
2022-12-11T05:41:16.207Z,98708.44
2022-12-11T05:43:43.862Z,98705.19
2022-12-11T05:46:14.240Z,98718.78
2022-12-11T05:48:43.357Z,98734.69
2022-12-11T05:51:16.122Z,98739.72
2022-12-11T05:53:44.944Z,98747.38
2022-12-11T05:56:15.052Z,98756.84
2022-12-11T05:58:43.905Z,98765.69
2022-12-11T06:01:20.794Z,98770.88
2022-12-11T06:03:48.852Z,98787.38
2022-12-11T06:06:16.705Z,98790.75
2022-12-11T06:08:44.449Z,98795.09
2022-12-11T06:11:22.324Z,98786.50
2022-12-11T06:13:52.399Z,98786.41
2022-12-11T06:16:21.038Z,98778.88
2022-12-11T06:18:48.867Z,98797.69
2022-12-11T06:21:22.810Z,98803.87
2022-12-11T06:23:52.792Z,98814.06
2022-12-11T06:26:20.989Z,98814.09
2022-12-11T06:28:49.198Z,98826.22
2022-12-11T06:31:17.977Z,98836.63
2022-12-11T06:33:45.790Z,98842.59
2022-12-11T06:36:16.205Z,98837.72
2022-12-11T06:38:44.711Z,98844.34
2022-12-11T06:41:13.102Z,98837.38
2022-12-11T06:43:41.582Z,98838.28
2022-12-11T06:46:12.654Z,98847.94
2022-12-11T06:48:42.314Z,98854.59
2022-12-11T06:51:15.628Z,98858.94
2022-12-11T06:53:44.197Z,98857.91
2022-12-11T06:56:14.529Z,98852.91
2022-12-11T06:58:43.317Z,98861.44
2022-12-11T07:01:14.874Z,98862.44
2022-12-11T07:03:43.009Z,98847.78
2022-12-11T07:06:10.697Z,98858.03
2022-12-11T07:08:38.227Z,98868.38
2022-12-11T07:11:07.653Z,98867.44
2022-12-11T07:13:35.730Z,98869.03
2022-12-11T07:16:04.813Z,98875.97
2022-12-11T07:18:32.816Z,98887.19
2022-12-11T07:21:00.564Z,98892.31
2022-12-11T07:23:28.698Z,98896.75
2022-12-11T07:25:56.896Z,98913.16
2022-12-11T07:28:26.100Z,98930.38
2022-12-11T07:30:53.839Z,98941.53
2022-12-11T07:33:21.670Z,98946.72
2022-12-11T07:35:49.302Z,98954.38
2022-12-11T07:38:17.260Z,98952.66
2022-12-11T07:40:45.128Z,98944.28
2022-12-11T07:43:12.731Z,98958.84
2022-12-11T07:45:40.230Z,98965.53
2022-12-11T07:48:08.403Z,98962.16
2022-12-11T07:50:39.737Z,98963.00
2022-12-11T07:53:08.084Z,98959.56
2022-12-11T07:55:35.681Z,98973.34
2022-12-11T07:58:03.649Z,98968.03
2022-12-11T08:00:31.461Z,98968.91
2022-12-11T08:02:59.331Z,98963.66
2022-12-11T08:05:26.857Z,98967.00
2022-12-11T08:07:54.431Z,98975.62
2022-12-11T08:10:23.069Z,98984.03
2022-12-11T08:12:50.987Z,98989.25
2022-12-11T08:15:18.758Z,98977.47
2022-12-11T08:17:46.538Z,98999.72
2022-12-11T08:20:14.472Z,98989.25
2022-12-11T08:22:41.957Z,98996.97
2022-12-11T08:25:10.107Z,99013.53
2022-12-11T08:27:37.826Z,99028.16
2022-12-11T08:30:06.179Z,99035.78
2022-12-11T08:32:34.711Z,99034.19
2022-12-11T08:35:02.294Z,99047.09
2022-12-11T08:37:29.758Z,99042.88
2022-12-11T08:39:58.116Z,99057.41
2022-12-11T08:42:25.658Z,99063.53
2022-12-11T08:44:53.123Z,99058.34
2022-12-11T08:47:20.993Z,99063.53
2022-12-11T08:49:48.848Z,99062.59
2022-12-11T08:52:16.606Z,99070.16
2022-12-11T08:54:44.381Z,99069.38
2022-12-11T08:57:11.927Z,99069.25
2022-12-11T08:59:41.378Z,99067.41
2022-12-11T09:02:12.322Z,99072.63
2022-12-11T09:04:39.959Z,99061.63
2022-12-11T09:07:07.356Z,99073.53
2022-12-11T09:09:35.141Z,99077.63
2022-12-11T09:12:04.679Z,99069.03
2022-12-11T09:14:32.120Z,99071.63
2022-12-11T09:16:59.860Z,99081.09
2022-12-11T09:19:32.101Z,99092.16
2022-12-11T09:22:02.864Z,99075.06
2022-12-11T09:24:30.367Z,99071.78
2022-12-11T09:26:57.844Z,99082.09
2022-12-11T09:29:26.331Z,99083.50
2022-12-11T09:31:53.964Z,99086.34
2022-12-11T09:34:26.066Z,99094.78
2022-12-11T09:36:57.440Z,99088.88
2022-12-11T09:39:25.248Z,99082.25
2022-12-11T09:42:11.285Z,99088.00
2022-12-11T09:44:56.249Z,99071.84
2022-12-11T09:47:36.630Z,99072.63
2022-12-11T09:50:10.583Z,99065.59
2022-12-11T09:52:49.472Z,99076.06
2022-12-11T09:55:27.459Z,99072.81
2022-12-11T09:58:16.355Z,99077.88
2022-12-11T10:01:11.872Z,99068.19
2022-12-11T10:04:05.612Z,99058.09
2022-12-11T10:06:38.657Z,99078.56
2022-12-11T10:09:18.149Z,99076.72
2022-12-11T10:11:56.784Z,99076.88
2022-12-11T10:14:27.682Z,99087.19
2022-12-11T10:17:03.278Z,99088.78
2022-12-11T10:19:32.519Z,99094.22
2022-12-11T10:22:01.180Z,99095.38
2022-12-11T10:25:09.611Z,99097.56
2022-12-11T10:27:31.362Z,99095.06
2022-12-11T10:30:16.615Z,99082.84
2022-12-11T10:32:47.461Z,99079.34
2022-12-11T10:35:42.414Z,99065.38
2022-12-11T10:38:16.223Z,99081.94
2022-12-11T10:40:49.252Z,99085.41
2022-12-11T10:43:17.416Z,99083.69
2022-12-11T10:45:53.271Z,99078.56
2022-12-11T10:48:22.121Z,99081.94
2022-12-11T10:51:04.538Z,99080.91
2022-12-11T10:53:33.725Z,99079.31
2022-12-11T10:56:01.923Z,99081.00
2022-12-11T10:58:34.467Z,99075.16
2022-12-11T11:01:11.124Z,99080.59
2022-12-11T11:03:52.751Z,99090.09
2022-12-11T11:06:21.432Z,99081.31
2022-12-11T11:08:51.446Z,99085.41
2022-12-11T11:11:23.400Z,99089.03
2022-12-11T11:13:51.714Z,99089.19
2022-12-11T11:16:21.228Z,99077.91
2022-12-11T11:18:54.848Z,99074.38
2022-12-11T11:21:25.003Z,99079.00
2022-12-11T11:23:53.839Z,99086.94
2022-12-11T11:26:23.048Z,99092.13
2022-12-11T11:28:53.541Z,99098.97
2022-12-11T11:31:23.179Z,99099.16
2022-12-11T11:34:06.020Z,99091.50
2022-12-11T11:36:35.800Z,99098.38
2022-12-11T11:39:18.811Z,99099.53
2022-12-11T11:41:52.331Z,99105.25
2022-12-11T11:44:25.978Z,99100.31
2022-12-11T11:47:04.016Z,99101.75
2022-12-11T11:50:04.403Z,99100.63
2022-12-11T11:53:00.845Z,99104.09
2022-12-11T11:55:42.163Z,99094.87
2022-12-11T11:58:19.434Z,99105.94
2022-12-11T12:00:53.397Z,99104.25
2022-12-11T12:03:23.694Z,99108.59
2022-12-11T12:05:55.826Z,99118.94
2022-12-11T12:08:58.379Z,99115.59
2022-12-11T12:11:41.297Z,99110.88
2022-12-11T12:14:51.062Z,99108.44
2022-12-11T12:17:09.692Z,99120.38
2022-12-11T12:20:11.111Z,99112.78
2022-12-11T12:22:53.931Z,99122.19
2022-12-11T12:25:46.251Z,99121.22
2022-12-11T12:28:32.853Z,99119.69
2022-12-11T12:31:17.636Z,99124.94
2022-12-11T12:33:51.146Z,99136.25
2022-12-11T12:36:39.834Z,99139.69
2022-12-11T12:39:42.688Z,99143.25
2022-12-11T12:42:19.611Z,99148.34
2022-12-11T12:45:14.871Z,99142.84
2022-12-11T12:47:46.742Z,99143.91
2022-12-11T12:50:21.006Z,99151.78
2022-12-11T12:52:49.476Z,99160.75
2022-12-11T12:55:24.326Z,99160.66
2022-12-11T12:58:00.614Z,99156.97
2022-12-11T13:00:31.204Z,99162.91
2022-12-11T13:03:02.659Z,99172.19
2022-12-11T13:05:33.233Z,99172.44
2022-12-11T13:08:03.731Z,99172.03
2022-12-11T13:10:40.454Z,99160.25
2022-12-11T13:13:31.664Z,99158.16
2022-12-11T13:16:19.375Z,99160.81
2022-12-11T13:18:48.324Z,99161.44
2022-12-11T13:21:28.112Z,99167.38
2022-12-11T13:24:07.205Z,99167.22
2022-12-11T13:26:34.717Z,99166.53
2022-12-11T13:29:02.468Z,99164.94
2022-12-11T13:31:40.130Z,99163.28
2022-12-11T13:34:20.654Z,99170.28
2022-12-11T13:36:52.767Z,99173.62
2022-12-11T13:39:25.513Z,99172.72
2022-12-11T13:42:06.068Z,99176.25
2022-12-11T13:44:38.989Z,99194.50
2022-12-11T13:47:12.202Z,99200.63
2022-12-11T13:49:43.661Z,99198.63
2022-12-11T13:52:22.489Z,99201.47
2022-12-11T13:54:53.096Z,99208.31
2022-12-11T13:57:25.977Z,99217.16
2022-12-11T13:59:56.402Z,99210.47
2022-12-11T14:02:34.234Z,99211.31
2022-12-11T14:05:12.900Z,99216.56
2022-12-11T14:07:48.065Z,99208.13
2022-12-11T14:10:29.958Z,99218.31
2022-12-11T14:13:01.939Z,99220.00
2022-12-11T14:15:31.770Z,99228.59
2022-12-11T14:18:00.393Z,99229.44
2022-12-11T14:20:30.255Z,99221.66
2022-12-11T14:23:18.986Z,99229.44
2022-12-11T14:26:17.125Z,99230.28
2022-12-11T14:28:44.930Z,99240.78
2022-12-11T14:31:17.335Z,99243.50
2022-12-11T14:33:54.221Z,99249.41
2022-12-11T14:36:22.054Z,99247.78
2022-12-11T14:39:05.926Z,99256.22
2022-12-11T14:41:45.662Z,99259.78
2022-12-11T14:44:16.920Z,99267.69
2022-12-11T14:46:56.755Z,99253.97
2022-12-11T14:50:06.210Z,99269.41
2022-12-11T14:52:37.414Z,99276.37
2022-12-11T14:55:29.196Z,99286.81
2022-12-11T14:58:03.544Z,99278.28
2022-12-11T15:00:35.886Z,99265.34
2022-12-11T15:03:07.197Z,99265.47
2022-12-11T15:05:40.596Z,99269.78
2022-12-11T15:08:11.125Z,99269.91
2022-12-11T15:11:14.705Z,99255.41
2022-12-11T15:13:52.660Z,99270.78
2022-12-11T15:16:22.651Z,99274.22
2022-12-11T15:18:51.954Z,99263.94
2022-12-11T15:21:29.028Z,99278.63
2022-12-11T15:23:58.847Z,99261.53
2022-12-11T15:26:36.737Z,99277.78
2022-12-11T15:29:07.421Z,99278.72
2022-12-11T15:31:35.282Z,99278.56
2022-12-11T15:34:03.384Z,99284.59
2022-12-11T15:36:30.737Z,99284.66
2022-12-11T15:38:58.942Z,99279.34
2022-12-11T15:41:27.023Z,99286.34
2022-12-11T15:43:58.930Z,99284.59
2022-12-11T15:46:27.800Z,99286.97
2022-12-11T15:48:56.529Z,99292.28
2022-12-11T15:51:25.309Z,99307.06
2022-12-11T15:53:53.283Z,99307.97
2022-12-11T15:56:20.866Z,99300.34
2022-12-11T15:58:48.826Z,99295.81
2022-12-11T16:01:16.688Z,99313.09
2022-12-11T16:03:45.765Z,99313.16
2022-12-11T16:06:13.690Z,99316.63
2022-12-11T16:08:41.237Z,99308.06
2022-12-11T16:11:12.658Z,99309.94
2022-12-11T16:13:40.276Z,99321.75
2022-12-11T16:16:08.015Z,99324.44
2022-12-11T16:18:35.839Z,99321.84
2022-12-11T16:21:05.263Z,99321.84
2022-12-11T16:23:32.851Z,99310.69
2022-12-11T16:26:06.248Z,99316.66
2022-12-11T16:28:33.994Z,99310.72
2022-12-11T16:31:01.919Z,99305.38
2022-12-11T16:33:29.572Z,99307.16
2022-12-11T16:35:57.890Z,99313.38
2022-12-11T16:38:25.747Z,99309.94
2022-12-11T16:41:01.613Z,99316.72
2022-12-11T16:43:29.333Z,99314.19
2022-12-11T16:45:56.893Z,99307.91
2022-12-11T16:48:24.523Z,99307.19
2022-12-11T16:50:54.469Z,99314.19
2022-12-11T16:53:22.191Z,99302.16
2022-12-11T16:55:49.938Z,99317.50
2022-12-11T16:58:21.398Z,99316.03
2022-12-11T17:00:49.588Z,99315.87
2022-12-11T17:03:18.522Z,99312.44
2022-12-11T17:05:46.574Z,99325.41
2022-12-11T17:08:14.450Z,99325.41
2022-12-11T17:10:42.785Z,99331.44
2022-12-11T17:13:10.682Z,99319.59
2022-12-11T17:15:42.093Z,99332.41
2022-12-11T17:18:13.225Z,99331.56
2022-12-11T17:20:45.046Z,99320.38
2022-12-11T17:23:13.533Z,99340.31
2022-12-11T17:25:42.930Z,99343.88
2022-12-11T17:28:11.680Z,99340.28
2022-12-11T17:30:41.638Z,99339.44
2022-12-11T17:33:10.139Z,99338.63
2022-12-11T17:35:38.354Z,99339.53
2022-12-11T17:38:06.392Z,99354.22
2022-12-11T17:40:34.449Z,99360.25
2022-12-11T17:43:06.392Z,99349.06
2022-12-11T17:45:34.441Z,99352.56
2022-12-11T17:48:02.554Z,99358.56
2022-12-11T17:50:30.787Z,99361.97
2022-12-11T17:52:58.878Z,99357.81
2022-12-11T17:55:26.412Z,99353.47
2022-12-11T17:57:54.072Z,99354.16
2022-12-11T18:00:22.308Z,99360.47
2022-12-11T18:02:50.182Z,99360.37
2022-12-11T18:05:18.215Z,99362.91
2022-12-11T18:07:46.034Z,99363.81
2022-12-11T18:10:14.421Z,99363.94
2022-12-11T18:12:41.938Z,99363.88
2022-12-11T18:15:11.024Z,99357.00
2022-12-11T18:17:39.201Z,99380.25
2022-12-11T18:20:14.528Z,99384.53
2022-12-11T18:22:42.745Z,99374.28
2022-12-11T18:25:12.210Z,99388.75
2022-12-11T18:27:40.339Z,99389.69
2022-12-11T18:30:08.836Z,99391.25
2022-12-11T18:32:37.146Z,99389.63
2022-12-11T18:35:04.820Z,99390.41
2022-12-11T18:37:32.860Z,99389.72
2022-12-11T18:40:05.804Z,99397.38
2022-12-11T18:42:33.933Z,99400.81
2022-12-11T18:45:02.187Z,99403.34
2022-12-11T18:47:30.910Z,99412.03
2022-12-11T18:50:03.943Z,99401.03
2022-12-11T18:52:34.876Z,99410.41
2022-12-11T18:55:02.927Z,99406.97
2022-12-11T18:57:31.060Z,99405.31
2022-12-11T19:00:07.016Z,99412.09
2022-12-11T19:02:36.031Z,99410.53
2022-12-11T19:05:04.180Z,99415.59
2022-12-11T19:07:32.128Z,99423.56
2022-12-11T19:10:04.266Z,99415.09
2022-12-11T19:12:31.787Z,99430.53
2022-12-11T19:14:59.448Z,99413.47
2022-12-11T19:17:28.666Z,99422.06
2022-12-11T19:19:57.269Z,99422.00
2022-12-11T19:22:25.084Z,99423.81
2022-12-11T19:24:53.148Z,99427.38
2022-12-11T19:27:20.797Z,99421.22
2022-12-11T19:29:48.659Z,99423.16
2022-12-11T19:32:16.823Z,99430.00
2022-12-11T19:34:44.495Z,99439.63
2022-12-11T19:37:12.174Z,99431.22
2022-12-11T19:39:40.429Z,99433.81
2022-12-11T19:42:08.218Z,99438.94
2022-12-11T19:44:36.000Z,99434.66
2022-12-11T19:47:04.216Z,99443.28
2022-12-11T19:49:31.925Z,99432.31
2022-12-11T19:51:59.626Z,99433.09
2022-12-11T19:54:27.645Z,99427.09
2022-12-11T19:56:57.860Z,99441.69
2022-12-11T19:59:26.116Z,99426.25
2022-12-11T20:01:54.184Z,99444.28
2022-12-11T20:04:22.811Z,99443.78
2022-12-11T20:06:50.324Z,99459.09
2022-12-11T20:09:18.243Z,99452.97
2022-12-11T20:11:47.411Z,99453.94
2022-12-11T20:14:23.992Z,99454.81
2022-12-11T20:17:11.004Z,99459.09
2022-12-11T20:19:41.845Z,99455.59
2022-12-11T20:22:10.023Z,99455.59
2022-12-11T20:24:38.143Z,99448.00
2022-12-11T20:27:05.930Z,99469.44
2022-12-11T20:29:33.918Z,99455.75
2022-12-11T20:32:03.140Z,99465.94
2022-12-11T20:34:32.744Z,99477.22
2022-12-11T20:37:00.700Z,99459.94
2022-12-11T20:39:29.303Z,99470.31
2022-12-11T20:41:57.024Z,99459.94
2022-12-11T20:44:25.010Z,99462.50
2022-12-11T20:46:52.820Z,99465.16
2022-12-11T20:49:20.535Z,99469.28
2022-12-11T20:51:48.577Z,99460.72
2022-12-11T20:54:16.302Z,99476.22
2022-12-11T20:56:44.592Z,99484.00
2022-12-11T20:59:13.416Z,99475.50
2022-12-11T21:01:41.089Z,99491.03
2022-12-11T21:04:09.050Z,99483.37
2022-12-11T21:06:38.811Z,99484.22
2022-12-11T21:09:10.792Z,99481.41
2022-12-11T21:11:39.222Z,99467.87
2022-12-11T21:14:06.903Z,99482.37
2022-12-11T21:16:36.442Z,99494.47
2022-12-11T21:19:05.489Z,99492.78
2022-12-11T21:21:42.742Z,99498.00
2022-12-11T21:24:22.527Z,99498.00
2022-12-11T21:26:50.472Z,99501.53
2022-12-11T21:29:18.698Z,99504.19
2022-12-11T21:31:46.256Z,99516.22
2022-12-11T21:34:14.113Z,99506.81
2022-12-11T21:36:42.120Z,99511.09
2022-12-11T21:39:11.888Z,99502.56
2022-12-11T21:41:40.763Z,99512.06
2022-12-11T21:46:56.750Z,99515.50
2022-12-11T21:49:24.486Z,99522.47
2022-12-11T21:51:52.003Z,99523.47
2022-12-11T21:54:19.773Z,99527.63
2022-12-11T21:56:47.509Z,99528.47
2022-12-11T21:59:15.438Z,99525.22
2022-12-11T22:01:46.023Z,99521.87
2022-12-11T22:04:14.902Z,99528.66
2022-12-11T22:06:43.619Z,99535.66
2022-12-11T22:09:12.549Z,99530.53
2022-12-11T22:11:41.293Z,99531.47
2022-12-11T22:14:16.181Z,99533.38
2022-12-11T22:16:44.143Z,99533.44
2022-12-11T22:19:11.830Z,99537.91
2022-12-11T22:21:40.058Z,99542.22
2022-12-11T22:24:08.048Z,99547.50
2022-12-11T22:26:35.613Z,99545.06
2022-12-11T22:29:03.303Z,99544.37
2022-12-11T22:31:31.357Z,99542.63
2022-12-11T22:33:58.975Z,99534.13
2022-12-11T22:36:27.188Z,99527.69
2022-12-11T22:38:55.361Z,99526.81
2022-12-11T22:41:28.815Z,99524.41
2022-12-11T22:43:57.405Z,99520.22
2022-12-11T22:46:27.437Z,99521.09
2022-12-11T22:48:55.386Z,99533.12
2022-12-11T22:51:23.612Z,99539.94
2022-12-11T22:53:51.278Z,99542.75
2022-12-11T22:56:19.080Z,99533.25
2022-12-11T22:58:47.073Z,99534.16
2022-12-11T23:01:19.351Z,99534.22
2022-12-11T23:03:47.584Z,99547.84
2022-12-11T23:06:16.560Z,99554.66
2022-12-11T23:08:44.250Z,99542.66
2022-12-11T23:11:16.900Z,99552.28
2022-12-11T23:13:44.446Z,99551.50
2022-12-11T23:16:12.723Z,99561.75
2022-12-11T23:18:40.275Z,99563.47
2022-12-11T23:21:08.278Z,99562.66
2022-12-11T23:23:36.037Z,99551.50
2022-12-11T23:26:04.887Z,99573.87
2022-12-11T23:28:32.356Z,99566.97
2022-12-11T23:31:00.465Z,99556.78
2022-12-11T23:33:28.418Z,99564.59
2022-12-11T23:35:57.953Z,99551.91
2022-12-11T23:38:25.785Z,99558.63
2022-12-11T23:40:53.499Z,99561.28
2022-12-11T23:43:21.272Z,99562.09
2022-12-11T23:45:49.279Z,99575.97
2022-12-11T23:48:17.392Z,99583.66
2022-12-11T23:50:44.925Z,99579.41
2022-12-11T23:53:12.981Z,99591.44
2022-12-11T23:55:42.122Z,99590.56
2022-12-11T23:58:10.805Z,99594.88
